Time;durP1;ratioP1;P1;durP2;ratioP2;P2;SDS_P1;SDS_P2;PMS_P1;PMS_P2;Temp;Humidity;BMP_temperature;BMP_pressure;BME280_temperature;BME280_humidity;BME280_pressure;Samples;Min_cycle;Max_cycle;Signal;HPM_P1;HPM_P2
2022/11/17 00:00:05;;;;;;;0.10;0.10;;;;;;;;;;5090800;28;20131;-73
2022/11/17 00:02:31;;;;;;;0.10;0.10;;;;;;;;;;5091755;28;20070;-73
2022/11/17 00:04:57;;;;;;;0.20;0.20;;;;;;;;;;5081565;28;20036;-73
2022/11/17 00:07:23;;;;;;;0.15;0.15;;;;;;;;;;5073200;28;20055;-72
2022/11/17 00:09:49;;;;;;;0.20;0.20;;;;;;;;;;5083920;28;20043;-72
2022/11/17 00:15:00;;;;;;;0.10;0.10;;;;;;;;;;5086250;28;20040;-73
2022/11/17 00:17:26;;;;;;;0.10;0.10;;;;;;;;;;5088281;28;20119;-74
2022/11/17 00:22:36;;;;;;;0.10;0.10;;;;;;;;;;5087488;28;20052;-73
2022/11/17 00:25:02;;;;;;;0.20;0.20;;;;;;;;;;5089874;28;20128;-72
2022/11/17 00:27:28;;;;;;;0.13;0.13;;;;;;;;;;5088672;28;20052;-73
2022/11/17 00:29:55;;;;;;;0.20;0.20;;;;;;;;;;5088928;28;20048;-73
2022/11/17 00:35:07;;;;;;;0.20;0.20;;;;;;;;;;5085239;28;20545;-72
2022/11/17 00:37:36;;;;;;;0.20;0.20;;;;;;;;;;5083632;28;20093;-72
2022/11/17 00:40:02;;;;;;;0.20;0.20;;;;;;;;;;5081199;28;20135;-72
2022/11/17 00:42:28;;;;;;;0.22;0.22;;;;;;;;;;5070966;28;20044;-73
2022/11/17 00:44:54;;;;;;;0.20;0.20;;;;;;;;;;5084455;28;20052;-73
2022/11/17 00:47:20;;;;;;;0.10;0.10;;;;;;;;;;5087902;28;20369;-72
2022/11/17 00:49:46;;;;;;;0.20;0.20;;;;;;;;;;5089639;28;20478;-72
2022/11/17 00:52:12;;;;;;;0.13;0.13;;;;;;;;;;5088114;28;20547;-72
2022/11/17 00:54:38;;;;;;;0.10;0.10;;;;;;;;;;5084693;28;20556;-72
2022/11/17 00:57:04;;;;;;;0.15;0.15;;;;;;;;;;5087425;28;20052;-72
2022/11/17 00:59:30;;;;;;;0.13;0.13;;;;;;;;;;5088444;28;20450;-72
2022/11/17 01:01:56;;;;;;;0.10;0.10;;;;;;;;;;5088523;28;20135;-73
2022/11/17 01:04:22;;;;;;;0.10;0.10;;;;;;;;;;5088805;28;20047;-72
2022/11/17 01:06:49;;;;;;;0.10;0.10;;;;;;;;;;5075535;28;20052;-72
2022/11/17 01:09:19;;;;;;;0.10;0.10;;;;;;;;;;5088698;28;20456;-72
2022/11/17 01:11:45;;;;;;;0.10;0.10;;;;;;;;;;5085153;28;20147;-73
2022/11/17 01:14:13;;;;;;;0.20;0.20;;;;;;;;;;5080073;28;20036;-73
2022/11/17 01:16:39;;;;;;;0.20;0.20;;;;;;;;;;5087488;28;20044;-73
2022/11/17 01:19:05;;;;;;;0.10;0.10;;;;;;;;;;5089798;28;20036;-73
2022/11/17 01:21:34;;;;;;;0.10;0.10;;;;;;;;;;5088285;28;20044;-72
2022/11/17 01:24:01;;;;;;;0.20;0.20;;;;;;;;;;5084508;28;20039;-72
2022/11/17 01:26:28;;;;;;;0.17;0.17;;;;;;;;;;5084757;28;20411;-72
2022/11/17 01:28:54;;;;;;;0.15;0.15;;;;;;;;;;5075676;28;20040;-73
2022/11/17 01:31:39;;;;;;;0.20;0.20;;;;;;;;;;5087769;28;20539;-72
2022/11/17 01:34:06;;;;;;;0.10;0.10;;;;;;;;;;5076788;28;20051;-72
2022/11/17 01:39:25;;;;;;;0.10;0.10;;;;;;;;;;5093508;28;20032;-73
2022/11/17 01:41:52;;;;;;;0.20;0.20;;;;;;;;;;5088196;28;20048;-72
2022/11/17 01:44:47;;;;;;;0.20;0.20;;;;;;;;;;5083179;28;20125;-72
2022/11/17 01:47:19;;;;;;;0.17;0.17;;;;;;;;;;5068232;28;20137;-72
2022/11/17 01:49:45;;;;;;;;;;;;;;;;;;5086865;28;20063;-70
2022/11/17 01:52:12;;;;;;;0.20;0.20;;;;;;;;;;5075227;28;20296;-70
2022/11/17 01:54:40;;;;;;;0.20;0.20;;;;;;;;;;5077107;28;20048;-70
2022/11/17 01:57:09;;;;;;;0.10;0.10;;;;;;;;;;5085650;28;20403;-71
2022/11/17 01:59:55;;;;;;;0.20;0.20;;;;;;;;;;5075418;28;20466;-71
2022/11/17 02:02:22;;;;;;;0.20;0.20;;;;;;;;;;5086317;28;20181;-72
2022/11/17 02:05:08;;;;;;;0.10;0.10;;;;;;;;;;5085962;28;20079;-73
2022/11/17 02:07:36;;;;;;;0.20;0.20;;;;;;;;;;5072267;28;20201;-70
2022/11/17 02:10:03;;;;;;;0.17;0.17;;;;;;;;;;5084826;28;20125;-70
2022/11/17 02:12:30;;;;;;;0.20;0.20;;;;;;;;;;5073558;28;20052;-71
2022/11/17 02:14:56;;;;;;;0.20;0.20;;;;;;;;;;5068072;28;20051;-73
2022/11/17 02:17:23;;;;;;;0.20;0.20;;;;;;;;;;5085785;28;20056;-71
2022/11/17 02:20:18;;;;;;;0.10;0.10;;;;;;;;;;5074531;28;20439;-71
2022/11/17 02:23:00;;;;;;;0.10;0.10;;;;;;;;;;5071292;28;20071;-71
2022/11/17 02:25:41;;;;;;;0.13;0.13;;;;;;;;;;5092222;28;20127;-71
2022/11/17 02:28:10;;;;;;;0.10;0.10;;;;;;;;;;5091460;28;20048;-72
2022/11/17 02:30:52;;;;;;;0.10;0.10;;;;;;;;;;5081964;28;20128;-72
2022/11/17 02:33:30;;;;;;;0.20;0.20;;;;;;;;;;5089806;28;20556;-71
2022/11/17 02:36:06;;;;;;;0.10;0.10;;;;;;;;;;5104262;28;20105;-71
2022/11/17 02:38:32;;;;;;;0.20;0.20;;;;;;;;;;5095560;28;20394;-71
2022/11/17 02:41:08;;;;;;;0.10;0.10;;;;;;;;;;5098092;28;20520;-71
2022/11/17 02:46:24;;;;;;;0.10;0.10;;;;;;;;;;5091038;28;20055;-71
2022/11/17 02:48:57;;;;;;;0.10;0.10;;;;;;;;;;5088944;28;20048;-71
2022/11/17 02:51:23;;;;;;;0.20;0.20;;;;;;;;;;5092022;28;20388;-71
2022/11/17 02:53:51;;;;;;;0.10;0.10;;;;;;;;;;5088894;28;20042;-71
2022/11/17 02:56:17;;;;;;;0.10;0.10;;;;;;;;;;5099072;28;20183;-71
2022/11/17 02:58:45;;;;;;;0.10;0.10;;;;;;;;;;5092980;28;20058;-71
2022/11/17 03:01:30;;;;;;;0.10;0.10;;;;;;;;;;5083829;28;20046;-72
2022/11/17 03:04:15;;;;;;;0.20;0.20;;;;;;;;;;5084941;28;20506;-71
2022/11/17 03:06:48;;;;;;;0.10;0.10;;;;;;;;;;5081205;28;20041;-72
2022/11/17 03:09:33;;;;;;;0.10;0.10;;;;;;;;;;5078677;28;20033;-71
2022/11/17 03:12:05;;;;;;;0.10;0.10;;;;;;;;;;5080148;28;20056;-71
2022/11/17 03:14:40;;;;;;;0.20;0.20;;;;;;;;;;5080698;28;20067;-71
2022/11/17 03:17:11;;;;;;;0.10;0.10;;;;;;;;;;5087225;28;20043;-72
2022/11/17 03:20:06;;;;;;;0.10;0.10;;;;;;;;;;5088547;28;20430;-71
2022/11/17 03:22:48;;;;;;;0.10;0.10;;;;;;;;;;5053747;28;20049;-71
2022/11/17 03:25:17;;;;;;;0.20;0.20;;;;;;;;;;5080307;28;20532;-73
2022/11/17 03:27:46;;;;;;;0.20;0.20;;;;;;;;;;5082449;28;20072;-71
2022/11/17 03:30:13;;;;;;;0.10;0.10;;;;;;;;;;5089430;28;20044;-72
2022/11/17 03:32:40;;;;;;;0.13;0.13;;;;;;;;;;5083885;28;20464;-71
2022/11/17 03:35:10;;;;;;;0.20;0.20;;;;;;;;;;5081956;28;20047;-72
2022/11/17 03:37:39;;;;;;;0.20;0.20;;;;;;;;;;5085927;28;20063;-72
2022/11/17 03:40:08;;;;;;;0.10;0.10;;;;;;;;;;5074599;28;20488;-71
2022/11/17 03:42:37;;;;;;;0.10;0.10;;;;;;;;;;5085330;28;20040;-72
2022/11/17 03:45:09;;;;;;;0.10;0.10;;;;;;;;;;5088980;28;20032;-72
2022/11/17 03:47:35;;;;;;;0.10;0.10;;;;;;;;;;5086703;28;20171;-72
2022/11/17 03:50:05;;;;;;;0.20;0.20;;;;;;;;;;5090821;28;20051;-71
2022/11/17 03:52:33;;;;;;;0.10;0.10;;;;;;;;;;5092571;28;20044;-72
2022/11/17 03:54:59;;;;;;;0.10;0.10;;;;;;;;;;5088546;28;20048;-72
2022/11/17 03:57:38;;;;;;;0.20;0.20;;;;;;;;;;5090893;28;20067;-72
2022/11/17 04:00:05;;;;;;;0.20;0.20;;;;;;;;;;5092273;28;20043;-71
2022/11/17 04:02:31;;;;;;;0.20;0.20;;;;;;;;;;5083181;28;20076;-73
2022/11/17 04:05:06;;;;;;;0.20;0.20;;;;;;;;;;5079094;28;20072;-72
2022/11/17 04:07:36;;;;;;;0.20;0.20;;;;;;;;;;5091082;28;20549;-71
2022/11/17 04:10:07;;;;;;;0.10;0.10;;;;;;;;;;5077782;28;20048;-72
2022/11/17 04:18:04;;;;;;;0.10;0.10;;;;;;;;;;5106077;28;20047;-72
2022/11/17 04:20:34;;;;;;;0.15;0.15;;;;;;;;;;5095503;28;20059;-72
2022/11/17 04:23:18;;;;;;;0.10;0.10;;;;;;;;;;5087738;28;20059;-72
2022/11/17 04:28:38;;;;;;;0.10;0.10;;;;;;;;;;5083233;28;20496;-71
2022/11/17 04:31:06;;;;;;;0.20;0.20;;;;;;;;;;5090228;28;20584;-71
2022/11/17 04:33:33;;;;;;;0.20;0.20;;;;;;;;;;5092089;28;20047;-72
2022/11/17 04:35:59;;;;;;;0.10;0.10;;;;;;;;;;5088360;28;20040;-72
2022/11/17 04:38:25;;;;;;;0.20;0.20;;;;;;;;;;5097794;28;20406;-72
2022/11/17 04:43:38;;;;;;;0.15;0.15;;;;;;;;;;5089129;28;20055;-71
2022/11/17 04:46:05;;;;;;;0.10;0.10;;;;;;;;;;5087724;28;20458;-71
2022/11/17 04:48:31;;;;;;;0.10;0.10;;;;;;;;;;5084187;28;20136;-71
2022/11/17 04:50:57;;;;;;;0.20;0.20;;;;;;;;;;5082506;28;20119;-71
2022/11/17 04:53:24;;;;;;;0.10;0.10;;;;;;;;;;5090250;28;20101;-71
2022/11/17 04:55:50;;;;;;;0.20;0.20;;;;;;;;;;5090646;28;20066;-71
2022/11/17 04:58:16;;;;;;;0.10;0.10;;;;;;;;;;5086743;28;20052;-72
2022/11/17 05:00:42;;;;;;;0.20;0.20;;;;;;;;;;5086068;28;20055;-71
2022/11/17 05:03:11;;;;;;;0.13;0.13;;;;;;;;;;5091302;28;20043;-72
2022/11/17 05:05:37;;;;;;;0.13;0.13;;;;;;;;;;5087398;28;20089;-72
2022/11/17 05:08:03;;;;;;;0.20;0.20;;;;;;;;;;5089909;28;20066;-71
2022/11/17 05:13:20;;;;;;;0.10;0.10;;;;;;;;;;5072728;28;20048;-72
2022/11/17 05:18:32;;;;;;;0.20;0.20;;;;;;;;;;5089607;28;20047;-71
2022/11/17 05:21:02;;;;;;;0.17;0.17;;;;;;;;;;5088359;28;20252;-71
2022/11/17 05:26:13;;;;;;;0.13;0.13;;;;;;;;;;5087152;28;20630;-71
2022/11/17 05:28:39;;;;;;;0.10;0.10;;;;;;;;;;5084920;28;20052;-73
2022/11/17 05:31:05;;;;;;;0.15;0.15;;;;;;;;;;5077665;28;20437;-72
2022/11/17 05:33:31;;;;;;;0.20;0.20;;;;;;;;;;5070397;28;20408;-72
2022/11/17 05:35:57;;;;;;;0.13;0.13;;;;;;;;;;5086419;28;20067;-71
2022/11/17 05:38:23;;;;;;;0.20;0.20;;;;;;;;;;5091700;28;20447;-74
2022/11/17 05:40:49;;;;;;;0.10;0.10;;;;;;;;;;5091594;28;20051;-71
2022/11/17 05:43:15;;;;;;;0.10;0.10;;;;;;;;;;5084994;28;20095;-72
2022/11/17 05:45:41;;;;;;;0.10;0.10;;;;;;;;;;5087427;28;20364;-72
2022/11/17 05:48:07;;;;;;;0.20;0.20;;;;;;;;;;5085600;28;20076;-72
2022/11/17 05:50:33;;;;;;;0.10;0.10;;;;;;;;;;5072954;28;20064;-71
2022/11/17 05:52:59;;;;;;;0.10;0.10;;;;;;;;;;5089331;28;20052;-71
2022/11/17 05:55:25;;;;;;;0.20;0.20;;;;;;;;;;5088966;28;20103;-72
2022/11/17 05:57:52;;;;;;;0.20;0.20;;;;;;;;;;5088894;28;20048;-72
2022/11/17 06:00:18;;;;;;;0.10;0.10;;;;;;;;;;5086260;28;20050;-71
2022/11/17 06:02:46;;;;;;;0.20;0.20;;;;;;;;;;5092458;28;20479;-73
2022/11/17 06:05:12;;;;;;;0.20;0.20;;;;;;;;;;5080798;28;20131;-72
2022/11/17 06:07:38;;;;;;;0.10;0.10;;;;;;;;;;5081241;28;20131;-72
2022/11/17 06:10:05;;;;;;;0.20;0.20;;;;;;;;;;5087389;28;20093;-72
2022/11/17 06:12:31;;;;;;;0.20;0.20;;;;;;;;;;5074142;28;20581;-72
2022/11/17 06:14:57;;;;;;;0.20;0.20;;;;;;;;;;5088209;28;20068;-72
2022/11/17 06:17:31;;;;;;;0.20;0.20;;;;;;;;;;5088173;28;20051;-73
2022/11/17 06:20:02;;;;;;;0.10;0.10;;;;;;;;;;5076815;28;20044;-71
2022/11/17 06:22:29;;;;;;;0.10;0.10;;;;;;;;;;5088814;28;20121;-72
2022/11/17 06:24:55;;;;;;;0.13;0.13;;;;;;;;;;5087191;28;20131;-72
2022/11/17 06:27:21;;;;;;;0.10;0.10;;;;;;;;;;5088625;28;20052;-72
2022/11/17 06:29:48;;;;;;;0.10;0.10;;;;;;;;;;5088845;28;20075;-72
2022/11/17 06:32:15;;;;;;;0.20;0.20;;;;;;;;;;5088185;28;20495;-72
2022/11/17 06:34:42;;;;;;;0.10;0.10;;;;;;;;;;5085296;28;20062;-72
2022/11/17 06:37:10;;;;;;;0.20;0.20;;;;;;;;;;5087435;28;20043;-72
2022/11/17 06:39:36;;;;;;;0.10;0.10;;;;;;;;;;5086578;28;20105;-72
2022/11/17 06:42:02;;;;;;;0.10;0.10;;;;;;;;;;5088600;28;20044;-72
2022/11/17 06:44:28;;;;;;;0.20;0.20;;;;;;;;;;5082947;28;20048;-72
2022/11/17 06:46:54;;;;;;;0.13;0.13;;;;;;;;;;5088409;28;20055;-71
2022/11/17 06:49:20;;;;;;;0.20;0.20;;;;;;;;;;5088859;28;20098;-73
2022/11/17 06:51:46;;;;;;;0.20;0.20;;;;;;;;;;5088888;28;20468;-72
2022/11/17 06:54:13;;;;;;;0.10;0.10;;;;;;;;;;5088903;28;20131;-71
2022/11/17 06:56:39;;;;;;;0.20;0.20;;;;;;;;;;5085165;28;20055;-71
2022/11/17 06:59:05;;;;;;;0.10;0.10;;;;;;;;;;5085630;28;20040;-72
2022/11/17 07:01:31;;;;;;;0.15;0.15;;;;;;;;;;5083777;28;20121;-71
2022/11/17 07:03:57;;;;;;;0.15;0.15;;;;;;;;;;5086748;28;20040;-71
2022/11/17 07:06:23;;;;;;;0.10;0.10;;;;;;;;;;5085770;28;20043;-71
2022/11/17 07:08:49;;;;;;;0.10;0.10;;;;;;;;;;5092034;28;20040;-71
2022/11/17 07:11:16;;;;;;;0.10;0.10;;;;;;;;;;5087521;28;20063;-71
2022/11/17 07:13:42;;;;;;;0.20;0.20;;;;;;;;;;5078652;28;20044;-71
2022/11/17 07:16:09;;;;;;;0.20;0.20;;;;;;;;;;5082351;28;20076;-71
2022/11/17 07:18:36;;;;;;;0.10;0.10;;;;;;;;;;5082251;28;20040;-72
2022/11/17 07:21:03;;;;;;;0.20;0.20;;;;;;;;;;5079572;28;20043;-72
2022/11/17 07:23:30;;;;;;;0.20;0.20;;;;;;;;;;5086513;28;20036;-72
2022/11/17 07:25:56;;;;;;;0.20;0.20;;;;;;;;;;5081131;28;20052;-72
2022/11/17 07:28:23;;;;;;;0.20;0.20;;;;;;;;;;5088567;28;20491;-71
2022/11/17 07:38:00;;;;;;;0.10;0.10;;;;;;;;;;5079790;28;20067;-72
2022/11/17 07:40:27;;;;;;;0.20;0.20;;;;;;;;;;5092873;28;20048;-72
2022/11/17 07:42:53;;;;;;;0.20;0.20;;;;;;;;;;5082597;28;20079;-72
2022/11/17 07:45:21;;;;;;;0.20;0.20;;;;;;;;;;5088655;28;21767;-72
2022/11/17 07:48:00;;;;;;;0.10;0.10;;;;;;;;;;5079335;28;20123;-72
2022/11/17 07:50:27;;;;;;;0.15;0.15;;;;;;;;;;5087979;28;20047;-72
2022/11/17 07:52:54;;;;;;;0.10;0.10;;;;;;;;;;5092754;28;20131;-72
2022/11/17 07:55:21;;;;;;;0.10;0.10;;;;;;;;;;5089998;28;20042;-73
2022/11/17 07:57:47;;;;;;;0.10;0.10;;;;;;;;;;5084397;28;20148;-71
2022/11/17 08:00:14;;;;;;;0.20;0.20;;;;;;;;;;5088163;28;20044;-71
2022/11/17 08:02:40;;;;;;;0.13;0.13;;;;;;;;;;5074787;28;20127;-71
2022/11/17 08:05:06;;;;;;;0.20;0.20;;;;;;;;;;5079758;28;20071;-73
2022/11/17 08:07:32;;;;;;;0.10;0.10;;;;;;;;;;5085570;28;20048;-73
2022/11/17 08:09:58;;;;;;;0.20;0.20;;;;;;;;;;5085469;28;20099;-71
2022/11/17 08:12:24;;;;;;;0.20;0.20;;;;;;;;;;5085735;28;20060;-73
2022/11/17 08:14:50;;;;;;;0.15;0.15;;;;;;;;;;5083186;28;20541;-73
2022/11/17 08:17:16;;;;;;;0.10;0.10;;;;;;;;;;5081696;28;20048;-75
2022/11/17 08:19:42;;;;;;;0.20;0.20;;;;;;;;;;5077481;28;20051;-70
2022/11/17 08:22:08;;;;;;;0.10;0.10;;;;;;;;;;5085752;28;20044;-70
2022/11/17 08:24:34;;;;;;;0.20;0.20;;;;;;;;;;5091673;28;20498;-73
2022/11/17 08:27:00;;;;;;;0.10;0.10;;;;;;;;;;5080366;28;20093;-73
2022/11/17 08:29:26;;;;;;;0.20;0.20;;;;;;;;;;5074757;28;20287;-70
2022/11/17 08:31:52;;;;;;;0.20;0.20;;;;;;;;;;5078772;28;20051;-71
2022/11/17 08:34:18;;;;;;;0.10;0.10;;;;;;;;;;5081954;28;20146;-71
2022/11/17 08:36:44;;;;;;;0.20;0.20;;;;;;;;;;5085376;28;20530;-71
2022/11/17 08:39:14;;;;;;;0.13;0.13;;;;;;;;;;5086947;28;20056;-71
2022/11/17 08:41:40;;;;;;;0.17;0.17;;;;;;;;;;5085809;28;20368;-71
2022/11/17 08:44:06;;;;;;;0.20;0.20;;;;;;;;;;5073279;28;20066;-71
2022/11/17 08:46:33;;;;;;;0.20;0.20;;;;;;;;;;5108622;27;20048;-71
2022/11/17 08:48:59;;;;;;;0.20;0.20;;;;;;;;;;5076820;28;20081;-71
2022/11/17 08:51:27;;;;;;;0.10;0.10;;;;;;;;;;5078085;28;20067;-71
2022/11/17 08:53:53;;;;;;;0.20;0.20;;;;;;;;;;5081177;28;20043;-71
2022/11/17 08:56:20;;;;;;;0.10;0.10;;;;;;;;;;5079444;28;20060;-72
2022/11/17 08:58:46;;;;;;;0.20;0.20;;;;;;;;;;5075413;28;20093;-72
2022/11/17 09:01:16;;;;;;;0.10;0.10;;;;;;;;;;5072825;28;20924;-71
2022/11/17 09:03:43;;;;;;;0.20;0.20;;;;;;;;;;5071277;28;20045;-71
2022/11/17 09:06:10;;;;;;;0.20;0.20;;;;;;;;;;5074109;28;20428;-73
2022/11/17 09:08:36;;;;;;;0.10;0.10;;;;;;;;;;5076902;28;20043;-73
2022/11/17 09:11:09;;;;;;;0.20;0.20;;;;;;;;;;5075610;28;20047;-73
2022/11/17 09:13:35;;;;;;;0.10;0.10;;;;;;;;;;5078954;28;20108;-74
2022/11/17 09:16:02;;;;;;;0.20;0.20;;;;;;;;;;5069216;28;20047;-73
2022/11/17 09:18:28;;;;;;;0.10;0.10;;;;;;;;;;5086319;28;20047;-73
2022/11/17 09:21:05;;;;;;;0.10;0.10;;;;;;;;;;5081643;28;20047;-73
2022/11/17 09:23:31;;;;;;;0.20;0.20;;;;;;;;;;5090950;28;20043;-73
2022/11/17 09:25:57;;;;;;;0.20;0.20;;;;;;;;;;5084801;28;20048;-71
2022/11/17 09:28:26;;;;;;;0.20;0.20;;;6.80;99.90;;;;;;5076969;28;20114;-71
2022/11/17 09:30:52;;;;;;;0.20;0.20;;;6.60;99.90;;;;;;5092162;28;20036;-72
2022/11/17 09:33:18;;;;;;;0.10;0.10;;;6.70;99.90;;;;;;5086249;28;20119;-71
2022/11/17 09:35:44;;;;;;;0.20;0.20;;;6.60;99.90;;;;;;5096044;28;20569;-72
2022/11/17 09:38:10;;;;;;;0.20;0.20;;;6.60;99.90;;;;;;5092011;28;20139;-72
2022/11/17 09:40:38;;;;;;;0.20;0.20;;;6.60;99.90;;;;;;5086598;28;20113;-71
2022/11/17 09:43:25;;;;;;;0.20;0.20;;;6.70;99.90;;;;;;5087550;28;20044;-72
2022/11/17 09:45:55;;;;;;;0.10;0.10;;;6.60;99.90;;;;;;5088703;28;20040;-71
2022/11/17 09:48:45;;;;;;;0.20;0.20;;;6.60;99.90;;;;;;5070079;28;20051;-72
2022/11/17 09:51:15;;;;;;;0.20;0.20;;;6.60;99.90;;;;;;5076296;28;20486;-71
2022/11/17 09:53:55;;;;;;;0.22;0.22;;;6.60;99.90;;;;;;5078736;28;20127;-72
2022/11/17 09:56:21;;;;;;;0.17;0.17;;;6.70;99.90;;;;;;5087537;28;20032;-72
2022/11/17 09:58:57;;;;;;;0.13;0.13;;;6.60;99.90;;;;;;5078810;28;20051;-72
2022/11/17 10:01:27;;;;;;;0.20;0.20;;;6.60;99.90;;;;;;5074160;28;20040;-72
2022/11/17 10:03:54;;;;;;;0.15;0.15;;;6.60;99.90;;;;;;5086500;28;20052;-71
2022/11/17 10:06:26;;;;;;;0.20;0.20;;;6.60;99.90;;;;;;5114654;27;20052;-72
2022/11/17 10:08:59;;;;;;;;;;;6.90;99.90;;;;;;5120654;27;20483;-71
2022/11/17 10:11:37;;;;;;;0.15;0.15;;;7.00;99.90;;;;;;5085696;28;19919;-71
2022/11/17 10:14:15;;;;;;;0.20;0.20;;;6.70;99.90;;;;;;5081071;28;20082;-71
2022/11/17 10:16:52;;;;;;;0.10;0.10;;;6.70;99.90;;;;;;5071810;28;20048;-72
2022/11/17 10:19:35;;;;;;;0.17;0.17;;;6.70;99.90;;;;;;5069661;28;20045;-71
2022/11/17 10:22:01;;;;;;;0.20;0.20;;;6.70;99.90;;;;;;5082406;28;20086;-71
2022/11/17 10:24:50;;;;;;;0.20;0.20;;;6.60;99.90;;;;;;5071111;28;20439;-72
2022/11/17 10:27:26;;;;;;;0.15;0.15;;;6.70;99.90;;;;;;5085683;28;20055;-72
2022/11/17 10:30:01;;;;;;;0.10;0.10;;;6.70;99.90;;;;;;5088970;28;20051;-71
2022/11/17 10:32:30;;;;;;;0.13;0.13;;;6.70;99.90;;;;;;5080755;28;20488;-71
2022/11/17 10:35:11;;;;;;;0.20;0.20;;;6.70;99.90;;;;;;5083586;28;20088;-71
2022/11/17 10:37:39;;;;;;;0.20;0.20;;;6.70;99.90;;;;;;5081824;28;20051;-71
2022/11/17 10:40:21;;;;;;;0.10;0.10;;;6.70;99.90;;;;;;5078405;28;20048;-72
2022/11/17 10:43:13;;;;;;;;;;;6.70;99.90;;;;;;5088075;28;20044;-72
2022/11/17 10:45:48;;;;;;;0.10;0.10;;;6.70;99.90;;;;;;5064845;28;19920;-72
2022/11/17 10:48:34;;;;;;;0.20;0.20;;;6.70;99.90;;;;;;5088638;28;20048;-71
2022/11/17 10:51:18;;;;;;;0.10;0.10;;;6.70;99.90;;;;;;5088846;28;20040;-72
2022/11/17 10:54:17;;;;;;;0.20;0.20;;;6.70;99.90;;;;;;5093507;28;20407;-72
2022/11/17 10:56:50;;;;;;;0.10;0.10;;;6.70;99.90;;;;;;5093309;28;20040;-72
2022/11/17 10:59:30;;;;;;;0.10;0.10;;;6.70;99.90;;;;;;5085425;28;20193;-72
2022/11/17 11:01:56;;;;;;;0.20;0.20;;;6.70;99.90;;;;;;5085950;28;20051;-72
2022/11/17 11:04:40;;;;;;;0.20;0.20;;;6.80;99.90;;;;;;5095758;27;20044;-72
2022/11/17 11:07:21;;;;;;;0.20;0.20;;;6.70;99.90;;;;;;5082355;28;20075;-71
2022/11/17 11:09:59;;;;;;;0.20;0.20;;;6.70;99.90;;;;;;5107662;27;20043;-71
2022/11/17 11:12:42;;;;;;;0.10;0.10;;;6.70;99.90;;;;;;5085330;28;20048;-70
2022/11/17 11:15:17;;;;;;;0.20;0.20;;;6.70;99.90;;;;;;5083031;28;20515;-71
2022/11/17 11:17:43;;;;;;;0.20;0.20;;;6.70;99.90;;;;;;5081483;28;20499;-71
2022/11/17 11:20:13;;;;;;;0.20;0.20;;;6.70;99.90;;;;;;5088723;28;20052;-71
2022/11/17 11:22:41;;;;;;;0.20;0.20;;;6.70;99.90;;;;;;5086667;28;20410;-70
2022/11/17 11:25:24;;;;;;;0.15;0.15;;;6.60;99.90;;;;;;5089511;28;20083;-72
2022/11/17 11:28:18;;;;;;;0.17;0.17;;;6.70;99.90;;;;;;5086338;28;20104;-72
2022/11/17 11:30:59;;;;;;;0.10;0.10;;;6.70;99.90;;;;;;5084152;28;20048;-72
2022/11/17 11:33:39;;;;;;;0.20;0.20;;;6.60;99.90;;;;;;5094556;28;20055;-71
2022/11/17 11:36:14;;;;;;;0.10;0.10;;;6.70;99.90;;;;;;5092344;28;20495;-71
2022/11/17 11:38:39;;;;;;;0.10;0.10;;;6.70;99.90;;;;;;5088783;28;20060;-71
2022/11/17 11:41:17;;;;;;;0.13;0.13;;;6.70;99.90;;;;;;5092864;28;20474;-71
2022/11/17 11:43:55;;;;;;;0.20;0.20;;;6.70;99.90;;;;;;5089488;28;20565;-71
2022/11/17 11:46:32;;;;;;;0.10;0.10;;;6.70;99.90;;;;;;5090212;28;20742;-72
2022/11/17 11:49:25;;;;;;;0.20;0.20;;;6.70;99.90;;;;;;5089303;28;20063;-71
2022/11/17 11:51:51;;;;;;;0.10;0.10;;;6.70;99.90;;;;;;5089582;28;20105;-71
2022/11/17 11:54:32;;;;;;;0.20;0.20;;;6.70;99.90;;;;;;5085127;28;20056;-71
2022/11/17 11:56:59;;;;;;;0.10;0.10;;;6.70;99.90;;;;;;5088261;28;20091;-72
2022/11/17 11:59:39;;;;;;;0.20;0.20;;;6.90;99.90;;;;;;5082196;28;20597;-72
2022/11/17 12:02:11;;;;;;;0.10;0.10;;;6.70;99.90;;;;;;5086250;28;20089;-72
2022/11/17 12:04:44;;;;;;;0.17;0.17;;;6.80;99.90;;;;;;5084497;28;20075;-71
2022/11/17 12:07:27;;;;;;;0.10;0.10;;;6.70;99.90;;;;;;5084062;28;20056;-72
2022/11/17 12:10:05;;;;;;;0.15;0.15;;;6.70;99.90;;;;;;5086665;28;20403;-71
2022/11/17 12:12:39;;;;;;;0.17;0.17;;;6.80;99.90;;;;;;5082001;28;20044;-71
2022/11/17 12:15:09;;;;;;;0.20;0.20;;;6.80;99.90;;;;;;5086540;28;20096;-72
2022/11/17 12:17:36;;;;;;;0.10;0.10;;;6.80;99.90;;;;;;5084335;28;20028;-71
2022/11/17 12:20:23;;;;;;;0.13;0.13;;;6.80;99.90;;;;;;5089904;28;20040;-72
2022/11/17 12:22:58;;;;;;;0.20;0.20;;;6.80;99.90;;;;;;5080924;28;20072;-72
2022/11/17 12:25:32;;;;;;;0.17;0.17;;;6.80;99.90;;;;;;5090972;28;20047;-71
2022/11/17 12:27:57;;;;;;;0.20;0.20;;;6.80;99.90;;;;;;5091785;28;20495;-71
2022/11/17 12:30:32;;;;;;;0.20;0.20;;;6.80;99.90;;;;;;5093451;28;20044;-72
2022/11/17 12:33:08;;;;;;;0.10;0.10;;;6.80;99.90;;;;;;5080404;28;20060;-72
2022/11/17 12:35:36;;;;;;;0.15;0.15;;;6.80;99.90;;;;;;5089369;28;20132;-72
2022/11/17 12:38:14;;;;;;;0.10;0.10;;;6.80;99.90;;;;;;5079681;28;20076;-71
2022/11/17 12:40:47;;;;;;;0.20;0.20;;;6.80;99.90;;;;;;5087255;28;20040;-72
2022/11/17 12:43:15;;;;;;;0.10;0.10;;;6.80;99.90;;;;;;5076966;28;20056;-72
2022/11/17 12:46:09;;;;;;;0.20;0.20;;;6.80;99.90;;;;;;5079873;28;20484;-72
2022/11/17 12:48:36;;;;;;;0.10;0.10;;;6.90;99.90;;;;;;5092683;28;20047;-72
2022/11/17 12:51:09;;;;;;;0.20;0.20;;;6.90;99.90;;;;;;5090301;28;20047;-72
2022/11/17 12:54:12;;;;;;;0.20;0.20;;;6.90;99.90;;;;;;5089856;28;20738;-72
2022/11/17 12:56:55;;;;;;;0.20;0.20;;;6.90;99.90;;;;;;5084746;28;20166;-71
2022/11/17 12:59:41;;;;;;;0.20;0.20;;;6.90;99.90;;;;;;5081880;28;20047;-73
2022/11/17 13:02:16;;;;;;;0.10;0.10;;;6.90;99.90;;;;;;5078810;28;20053;-72
2022/11/17 13:04:57;;;;;;;0.20;0.20;;;6.90;99.90;;;;;;5077508;28;21625;-72
2022/11/17 13:07:24;;;;;;;;;;;6.90;99.90;;;;;;5091282;28;20048;-72
2022/11/17 13:09:52;;;;;;;0.10;0.10;;;7.00;99.90;;;;;;5073537;28;19939;-72
2022/11/17 13:12:26;;;;;;;0.20;0.20;;;7.40;99.90;;;;;;5087114;28;20047;-72
2022/11/17 13:15:01;;;;;;;0.10;0.10;;;7.00;99.90;;;;;;5090121;28;20047;-72
2022/11/17 13:17:54;;;;;;;0.17;0.17;;;7.00;99.90;;;;;;5071978;28;20063;-72
2022/11/17 13:20:25;;;;;;;0.20;0.20;;;7.00;99.90;;;;;;5088382;28;20139;-72
2022/11/17 13:23:07;;;;;;;0.20;0.20;;;7.00;99.90;;;;;;5070824;28;20053;-71
2022/11/17 13:25:33;;;;;;;0.20;0.20;;;7.00;99.90;;;;;;5089747;28;20556;-72
2022/11/17 13:27:59;;;;;;;0.17;0.17;;;7.00;99.90;;;;;;5088069;28;20083;-71
2022/11/17 13:30:30;;;;;;;0.13;0.13;;;7.00;99.90;;;;;;5084146;28;20502;-72
2022/11/17 13:32:58;;;;;;;0.10;0.10;;;7.00;99.90;;;;;;5088925;28;20050;-72
2022/11/17 13:35:25;;;;;;;0.10;0.10;;;7.10;99.90;;;;;;5088801;28;20173;-72
2022/11/17 13:38:10;;;;;;;0.10;0.10;;;7.10;99.90;;;;;;5086507;28;20064;-72
2022/11/17 13:40:38;;;;;;;0.10;0.10;;;7.10;99.90;;;;;;5083245;28;20045;-71
2022/11/17 13:43:06;;;;;;;0.20;0.20;;;7.10;99.90;;;;;;5089860;28;20040;-72
2022/11/17 13:45:32;;;;;;;0.10;0.10;;;7.10;99.90;;;;;;5078665;28;20079;-72
2022/11/17 13:47:58;;;;;;;0.20;0.20;;;7.10;99.90;;;;;;5073472;28;20086;-73
2022/11/17 13:50:28;;;;;;;0.20;0.20;;;7.60;99.90;;;;;;5087721;28;20715;-72
2022/11/17 13:53:22;;;;;;;0.20;0.20;;;7.10;99.90;;;;;;5089614;28;20052;-72
2022/11/17 13:55:48;;;;;;;0.20;0.20;;;7.10;99.90;;;;;;5070306;28;20044;-73
2022/11/17 13:58:47;;;;;;;0.17;0.17;;;7.10;99.90;;;;;;5088564;28;20079;-72
2022/11/17 14:01:13;;;;;;;0.20;0.20;;;7.10;99.90;;;;;;5051947;28;20436;-72
2022/11/17 14:03:41;;;;;;;0.10;0.10;;;7.10;99.90;;;;;;5088192;28;20127;-73
2022/11/17 14:06:12;;;;;;;0.20;0.20;;;7.10;99.90;;;;;;5088416;28;20071;-72
2022/11/17 14:08:42;;;;;;;0.20;0.20;;;7.20;99.90;;;;;;5082078;28;20127;-72
2022/11/17 14:11:11;;;;;;;0.20;0.20;;;7.20;99.90;;;;;;5091572;28;20507;-72
2022/11/17 14:14:10;;;;;;;0.10;0.10;;;7.10;99.90;;;;;;5077342;28;20052;-72
2022/11/17 14:16:38;;;;;;;0.20;0.20;;;7.20;99.90;;;;;;5078135;28;20079;-72
2022/11/17 14:19:22;;;;;;;0.20;0.20;;;7.10;99.90;;;;;;5079735;28;20048;-72
2022/11/17 14:22:09;;;;;;;0.10;0.10;;;7.10;99.90;;;;;;5100279;28;20541;-73
2022/11/17 14:24:35;;;;;;;0.10;0.10;;;7.10;99.90;;;;;;5088173;28;20456;-72
2022/11/17 14:27:02;;;;;;;0.32;0.30;;;7.10;99.90;;;;;;5086772;28;20043;-72
2022/11/17 14:29:28;;;;;;;0.10;0.10;;;7.10;99.90;;;;;;5092474;28;20108;-72
2022/11/17 14:31:54;;;;;;;0.20;0.20;;;7.10;99.90;;;;;;5081745;28;20036;-73
2022/11/17 14:34:20;;;;;;;0.10;0.10;;;7.00;99.90;;;;;;5089205;28;20094;-73
2022/11/17 14:39:32;;;;;;;0.20;0.20;;;7.10;99.90;;;;;;5191367;27;20635;-73
2022/11/17 14:41:58;;;;;;;0.10;0.10;;;7.10;99.90;;;;;;5165751;27;20042;-73
2022/11/17 14:44:24;;;;;;;0.20;0.20;;;7.10;99.90;;;;;;5156272;27;20524;-73
2022/11/17 14:46:49;;;;;;;0.13;0.13;;;7.10;99.90;;;;;;5152640;27;20035;-72
2022/11/17 14:49:15;;;;;;;0.20;0.20;;;7.10;99.90;;;;;;5130327;27;20436;-73
2022/11/17 14:51:41;;;;;;;0.20;0.20;;;7.10;99.90;;;;;;5152294;27;20039;-73
2022/11/17 14:54:06;;;;;;;0.13;0.13;;;7.10;99.90;;;;;;5130212;27;20064;-73
2022/11/17 14:56:33;;;;;;;0.20;0.20;;;7.10;99.90;;;;;;5153180;27;20047;-73
2022/11/17 14:58:59;;;;;;;0.10;0.10;;;7.20;99.90;;;;;;5165318;27;20050;-73
2022/11/17 15:01:30;;;;;;;0.10;0.10;;;7.10;99.90;;;;;;5139885;27;20397;-73
2022/11/17 15:03:59;;;;;;;0.13;0.13;;;7.10;99.90;;;;;;5157692;27;20110;-72